MUC | München Airways

 METAR UND TAF INFORMATION

METAR FOR LYBE
ADDS - METARS form results

(0857 UTC 22 March 2019)
Data provider http://aviationweather.gov/metar/data/
 
METAR text: LYBE 220830Z 24004KT 200V270 CAVOK 10/M00 Q1033 NOSIG
Conditions at: LYBE (BELGRADE/SURCIN , CS) observed 0830 UTC 22 March 2019
Temperature: 10.0°C (50°F)
Dewpoint: 0.0°C (32°F) [RH = 50%]
Pressure (altimeter): 30.50 inches Hg (1033.0 mb)
Winds: from the WSW (240 degrees) at 5 MPH (4 knots; 2.1 m/s)
Visibility: 6 or more miles (10+ km)
Ceiling: ceiling and visibility are OK
Clouds: unknown
Weather: no significant weather observed at this time

METAR text: LYBE 220800Z 25005KT CAVOK 09/M00 Q1033 NOSIG
Conditions at: LYBE (BELGRADE/SURCIN , CS) observed 0800 UTC 22 March 2019
Temperature: 9.0°C (48°F)
Dewpoint: 0.0°C (32°F) [RH = 53%]
Pressure (altimeter): 30.50 inches Hg (1033.0 mb)
Winds: from the WSW (250 degrees) at 6 MPH (5 knots; 2.6 m/s)
Visibility: 6 or more miles (10+ km)
Ceiling: ceiling and visibility are OK
Clouds: unknown
Weather: no significant weather observed at this time

Forecast for: LYBE (BELGRADE/SURCIN , CS)
Text: TAF LYBE 220500Z 2206/2306 23006KT CAVOK TX16/2214Z TN02/2206Z
Forecast period: 0600 UTC 22 March 2019 to 0600 UTC 23 March 2019
Forecast type: FROM: standard forecast or significant change
Winds: from the SW (230 degrees) at 7 MPH (6 knots; 3.1 m/s)
Visibility: 6 or more miles 10+ km)
Ceiling: unknown
Clouds: missing
Weather: no significant weather forecast for this period
Text: TEMPO 2303/2306 3000 BR
Forecast period: 0300 to 0600 UTC 23 March 2019
Forecast type: TEMPORARY: The following changes expected for less than half the time period
Visibility: 1.86 miles (2.99 km)
Ceiling: unknown
Clouds: missing
Weather: BR  (mist)

 FLUGHAFENKARTE

 RUNWAY INFORMATION
Runway 12 Runway length 11155 ft Runway width 148 ft
Runway elevation 318 ft Runway displaced threshold 0 ft Runway heading 122
Runway 30 Runway length 11155 ft Runway width 148 ft
Runway elevation 335 ft Runway displaced threshold 1312 ft Runway heading 302

 AIRPORT FREQUENCIES
Type APP Name APP Frequency 119.1 MHZ
Type ATIS Name INFO Frequency 122.925 MHZ
Type TWR Name TWR Frequency 118.1 MHZ

 AIRPORT NEAR NAVIGATION AIDS
Type VOR-DME Name Beograd Frequency 112300 KHZ
Type NDB Name Beograd Frequency 316 KHZ
Type NDB Name Beograd Frequency 380 KHZ
Type NDB Name Beograd Frequency 355 KHZ